createdAt,value
2022-12-01T00:01:52.713Z,24.00
2022-12-01T00:06:20.482Z,23.93
2022-12-01T00:10:28.679Z,23.70
2022-12-01T00:14:55.147Z,25.00
2022-12-01T00:18:58.834Z,22.13
2022-12-01T00:23:01.197Z,23.83
2022-12-01T00:27:04.263Z,23.27
2022-12-01T00:31:30.085Z,26.03
2022-12-01T00:35:59.469Z,24.50
2022-12-01T00:40:40.012Z,23.93
2022-12-01T00:44:42.435Z,25.53
2022-12-01T00:48:44.329Z,22.60
2022-12-01T00:52:48.364Z,22.90
2022-12-01T00:56:51.039Z,23.33
2022-12-01T01:01:00.198Z,23.63
2022-12-01T01:05:02.320Z,23.37
2022-12-01T01:09:32.879Z,23.10
2022-12-01T01:13:35.858Z,24.20
2022-12-01T01:18:47.360Z,24.83
2022-12-01T01:22:49.299Z,23.93
2022-12-01T01:26:51.498Z,23.67
2022-12-01T01:30:54.509Z,23.77
2022-12-01T01:34:56.585Z,22.57
2022-12-01T01:38:58.457Z,22.67
2022-12-01T01:43:00.326Z,21.93
2022-12-01T01:47:02.526Z,22.57
2022-12-01T01:51:05.837Z,21.80
2022-12-01T01:55:08.267Z,23.03
2022-12-01T01:59:12.770Z,22.67
2022-12-01T02:04:05.130Z,22.47
2022-12-01T02:08:12.532Z,21.87
2022-12-01T02:12:54.005Z,20.40
2022-12-01T02:17:16.898Z,24.33
2022-12-01T02:21:39.016Z,21.47
2022-12-01T02:26:13.229Z,23.80
2022-12-01T02:30:45.857Z,24.70
2022-12-01T02:35:42.179Z,23.17
2022-12-01T02:40:39.706Z,22.23
2022-12-01T02:44:45.935Z,18.37
2022-12-01T02:49:58.496Z,19.27
2022-12-01T02:54:04.188Z,16.97
2022-12-01T02:58:22.349Z,19.90
2022-12-01T03:03:13.283Z,20.90
2022-12-01T03:07:49.189Z,22.40
2022-12-01T03:12:19.633Z,21.57
2022-12-01T03:16:54.177Z,22.53
2022-12-01T03:21:22.963Z,21.50
2022-12-01T03:32:16.001Z,22.00
2022-12-01T03:36:41.960Z,21.70
2022-12-01T03:40:49.864Z,21.80
2022-12-01T03:45:26.753Z,20.20
2022-12-01T03:49:36.218Z,21.17
2022-12-01T03:53:55.187Z,21.27
2022-12-01T03:58:35.792Z,21.70
2022-12-01T04:03:42.331Z,21.73
2022-12-01T04:07:48.539Z,20.47
2022-12-01T04:12:11.216Z,20.57
2022-12-01T04:16:14.309Z,21.77
2022-12-01T04:20:17.932Z,20.33
2022-12-01T04:24:20.041Z,18.00
2022-12-01T04:28:27.573Z,20.80
2022-12-01T04:32:29.731Z,23.10
2022-12-01T04:37:10.225Z,21.60
2022-12-01T04:41:40.205Z,21.13
2022-12-01T04:45:42.181Z,22.13
2022-12-01T04:49:45.293Z,22.00
2022-12-01T04:53:47.169Z,21.07
2022-12-01T04:58:15.057Z,21.57
2022-12-01T05:02:24.376Z,22.23
2022-12-01T05:07:18.391Z,20.97
2022-12-01T05:11:46.137Z,21.80
2022-12-01T05:15:52.204Z,20.97
2022-12-01T05:20:12.822Z,22.10
2022-12-01T05:24:16.090Z,22.57
2022-12-01T05:28:18.453Z,22.63
2022-12-01T05:32:20.332Z,22.80
2022-12-01T05:36:22.498Z,22.17
2022-12-01T05:40:24.430Z,21.27
2022-12-01T05:44:26.340Z,23.43
2022-12-01T05:48:28.235Z,21.93
2022-12-01T05:52:58.165Z,20.07
2022-12-01T05:57:07.168Z,23.30
2022-12-01T06:01:11.179Z,21.83
2022-12-01T06:05:17.282Z,22.30
2022-12-01T06:09:21.572Z,22.37
2022-12-01T06:13:23.447Z,20.03
2022-12-01T06:18:20.177Z,22.20
2022-12-01T06:22:23.281Z,22.00
2022-12-01T06:26:32.484Z,23.30
2022-12-01T06:30:34.536Z,23.07
2022-12-01T06:34:36.394Z,24.90
2022-12-01T06:39:10.709Z,22.70
2022-12-01T06:43:16.330Z,24.93
2022-12-01T06:47:18.430Z,25.40
2022-12-01T06:51:24.571Z,24.87
2022-12-01T06:55:30.228Z,26.07
2022-12-01T06:59:32.394Z,25.87
2022-12-01T07:03:59.684Z,25.37
2022-12-01T07:08:03.509Z,26.90
2022-12-01T07:12:08.724Z,25.43
2022-12-01T07:16:38.398Z,25.47
2022-12-01T07:20:40.322Z,24.83
2022-12-01T07:25:34.794Z,27.50
2022-12-01T07:29:36.708Z,25.90
2022-12-01T07:33:39.395Z,27.03
2022-12-01T07:37:41.380Z,27.17
2022-12-01T07:41:43.490Z,24.07
2022-12-01T07:45:45.650Z,27.90
2022-12-01T07:49:48.238Z,26.13
2022-12-01T07:53:53.895Z,26.50
2022-12-01T07:59:02.320Z,24.97
2022-12-01T08:03:58.004Z,26.90
2022-12-01T08:08:02.377Z,25.37
2022-12-01T08:12:41.892Z,25.83
2022-12-01T08:16:49.846Z,24.70
2022-12-01T08:20:58.433Z,21.93
2022-12-01T08:25:05.854Z,24.67
2022-12-01T08:29:07.693Z,26.23
2022-12-01T08:34:12.398Z,24.60
2022-12-01T08:38:18.415Z,26.50
2022-12-01T08:42:21.247Z,27.80
2022-12-01T08:46:23.194Z,24.57
2022-12-01T08:50:42.745Z,24.63
2022-12-01T09:00:45.474Z,27.17
2022-12-01T09:04:47.826Z,25.47
2022-12-01T09:08:55.413Z,25.90
2022-12-01T09:12:57.696Z,26.87
2022-12-01T09:17:26.300Z,24.30
2022-12-01T09:21:43.419Z,25.47
2022-12-01T09:25:45.632Z,23.73
2022-12-01T09:29:47.802Z,25.47
2022-12-01T09:34:02.245Z,25.67
2022-12-01T09:38:04.740Z,25.40
2022-12-01T09:42:18.710Z,26.43
2022-12-01T09:46:44.746Z,27.27
2022-12-01T09:50:50.275Z,25.03
2022-12-01T09:54:55.600Z,25.73
2022-12-01T09:59:24.891Z,27.23
2022-12-01T10:03:55.320Z,27.00
2022-12-01T10:08:27.150Z,26.63
2022-12-01T10:12:44.259Z,26.67
2022-12-01T10:17:04.068Z,25.30
2022-12-01T10:21:27.816Z,26.27
2022-12-01T10:25:57.268Z,25.00
2022-12-01T10:30:20.285Z,27.77
2022-12-01T10:34:33.786Z,25.83
2022-12-01T10:44:12.961Z,25.33
2022-12-01T10:48:22.372Z,25.83
2022-12-01T10:52:41.015Z,24.43
2022-12-01T10:57:00.277Z,26.60
2022-12-01T11:01:15.757Z,25.77
2022-12-01T11:05:34.191Z,25.03
2022-12-01T11:09:40.970Z,25.63
2022-12-01T11:13:44.068Z,25.70
2022-12-01T11:17:46.204Z,26.00
2022-12-01T11:21:53.311Z,26.20
2022-12-01T11:26:34.720Z,25.97
2022-12-01T11:31:06.322Z,24.30
2022-12-01T11:35:20.991Z,24.03
2022-12-01T11:40:18.873Z,25.90
2022-12-01T11:48:58.396Z,24.07
2022-12-01T11:53:00.879Z,24.10
2022-12-01T11:57:32.574Z,24.40
2022-12-01T12:02:14.971Z,24.90
2022-12-01T12:06:39.849Z,25.33
2022-12-01T12:11:21.521Z,26.23
2022-12-01T12:20:30.991Z,24.50
2022-12-01T12:25:34.832Z,23.53
2022-12-01T12:29:46.246Z,23.73
2022-12-01T12:34:29.198Z,23.77
2022-12-01T12:38:48.405Z,24.60
2022-12-01T12:43:12.414Z,25.00
2022-12-01T12:48:08.056Z,24.13
2022-12-01T12:52:31.252Z,24.03
2022-12-01T12:56:35.614Z,25.60
2022-12-01T13:00:49.737Z,23.60
2022-12-01T13:05:05.243Z,24.87
2022-12-01T13:09:18.139Z,23.20
2022-12-01T13:14:19.857Z,24.07
2022-12-01T13:18:22.793Z,23.87
2022-12-01T13:22:32.209Z,22.13
2022-12-01T13:26:37.889Z,24.57
2022-12-01T13:30:41.175Z,27.03
2022-12-01T13:34:47.994Z,24.63
2022-12-01T13:39:36.257Z,24.47
2022-12-01T13:44:07.322Z,24.50
2022-12-01T13:48:37.186Z,25.37
2022-12-01T13:53:06.711Z,25.30
2022-12-01T13:57:25.614Z,25.53
2022-12-01T14:01:30.338Z,25.20
2022-12-01T14:05:57.171Z,25.73
2022-12-01T14:10:32.249Z,25.10
2022-12-01T14:15:03.323Z,24.33
2022-12-01T14:19:29.249Z,27.33
2022-12-01T14:24:01.857Z,24.60
2022-12-01T14:28:04.665Z,24.00
2022-12-01T14:32:09.855Z,24.93
2022-12-01T14:42:09.082Z,26.50
2022-12-01T14:46:23.124Z,25.90
2022-12-01T14:50:53.668Z,25.57
2022-12-01T14:54:58.660Z,24.30
2022-12-01T15:00:04.866Z,27.13
2022-12-01T15:04:32.989Z,24.27
2022-12-01T15:08:43.449Z,23.70
2022-12-01T15:12:49.554Z,24.93
2022-12-01T15:16:53.064Z,26.87
2022-12-01T15:21:27.297Z,27.97
2022-12-01T15:25:37.559Z,25.37
2022-12-01T15:30:05.511Z,26.87
2022-12-01T15:34:37.198Z,26.90
2022-12-01T15:38:42.444Z,29.37
2022-12-01T15:43:04.069Z,25.77
2022-12-01T15:47:55.980Z,23.67
2022-12-01T15:52:09.436Z,23.77
2022-12-01T15:56:12.209Z,25.23
2022-12-01T16:00:20.377Z,23.50
2022-12-01T16:04:28.237Z,24.67
2022-12-01T16:08:32.413Z,22.83
2022-12-01T16:12:36.856Z,22.20
2022-12-01T16:16:55.939Z,22.27
2022-12-01T16:22:03.073Z,25.53
2022-12-01T16:26:54.644Z,22.33
2022-12-01T16:30:57.204Z,20.33
2022-12-01T16:34:59.784Z,19.97
2022-12-01T16:39:07.315Z,17.83
2022-12-01T16:43:30.041Z,18.70
2022-12-01T16:47:32.845Z,19.13
2022-12-01T16:51:54.759Z,20.47
2022-12-01T16:56:00.506Z,20.23
2022-12-01T17:00:20.633Z,20.47
2022-12-01T17:04:22.652Z,23.07
2022-12-01T17:08:25.262Z,24.43
2022-12-01T17:12:27.249Z,25.87
2022-12-01T17:16:29.259Z,23.63
2022-12-01T17:20:31.267Z,24.27
2022-12-01T17:24:33.309Z,26.33
2022-12-01T17:28:35.605Z,27.53
2022-12-01T17:33:57.724Z,25.07
2022-12-01T17:38:05.702Z,27.13
2022-12-01T17:42:26.402Z,26.87
2022-12-01T17:46:57.980Z,29.50
2022-12-01T17:51:02.139Z,25.23
2022-12-01T17:55:30.835Z,27.00
2022-12-01T17:59:39.594Z,29.33
2022-12-01T18:04:09.998Z,26.27
2022-12-01T18:09:10.535Z,27.43
2022-12-01T18:19:59.404Z,29.83
2022-12-01T18:29:01.906Z,28.90
2022-12-01T18:33:48.221Z,29.07
2022-12-01T20:20:27.812Z,33.20
2022-12-01T20:24:36.034Z,37.00
2022-12-01T20:28:38.972Z,35.93
2022-12-01T20:32:41.028Z,51.00
2022-12-01T20:36:46.785Z,35.00
2022-12-01T20:40:52.364Z,33.47
2022-12-01T20:44:54.393Z,38.27
2022-12-01T20:48:59.210Z,35.17
2022-12-01T20:53:24.156Z,46.63
2022-12-01T20:57:28.608Z,38.63
2022-12-01T21:01:32.942Z,43.53
2022-12-01T21:05:38.276Z,41.93
2022-12-01T21:09:40.471Z,56.10
2022-12-01T21:13:42.787Z,42.07
2022-12-01T21:18:12.603Z,58.17
2022-12-01T21:22:14.779Z,34.20
2022-12-01T21:26:19.212Z,36.50
2022-12-01T21:30:31.750Z,55.40
2022-12-01T21:34:35.690Z,71.90
2022-12-01T21:38:37.597Z,52.33
2022-12-01T21:42:39.492Z,63.50
2022-12-01T21:46:46.652Z,54.07
2022-12-01T21:51:36.242Z,56.43
2022-12-01T21:55:44.339Z,97.80
2022-12-01T21:59:46.326Z,80.60
2022-12-01T22:04:31.586Z,65.17
2022-12-01T22:08:40.433Z,50.93
2022-12-01T22:13:42.875Z,47.83
2022-12-01T22:17:44.784Z,71.27
2022-12-01T22:22:25.292Z,62.03
2022-12-01T22:26:32.926Z,71.30
2022-12-01T22:30:52.593Z,75.10
2022-12-01T22:35:54.900Z,74.60
2022-12-01T22:39:57.519Z,66.80
2022-12-01T22:44:01.538Z,54.20
2022-12-01T22:49:06.053Z,64.27
2022-12-01T22:53:18.144Z,54.07
2022-12-01T22:57:43.147Z,52.97
2022-12-01T23:01:59.512Z,60.37
2022-12-01T23:06:45.558Z,66.60
2022-12-01T23:10:47.757Z,42.67
2022-12-01T23:14:52.860Z,57.93
2022-12-01T23:18:55.591Z,56.27
2022-12-01T23:23:00.660Z,57.63
2022-12-01T23:27:02.711Z,52.83
2022-12-01T23:31:06.145Z,53.93
2022-12-01T23:35:38.091Z,47.63
2022-12-01T23:39:40.041Z,47.40
2022-12-01T23:43:44.365Z,54.27
2022-12-01T23:47:46.565Z,56.30
2022-12-01T23:53:00.650Z,59.03
2022-12-01T23:57:54.636Z,32.80
